Lakeway's Hourly Summary for Monday, July 9, 2018
Hour Temp
(f)
RH
(%)
Solar Rad.
(MJ/m2)
Rainfall
(in)
Wind
(mph)
7/9/2018 12:00 AM 76 92 0 0 1.14
7/9/2018 1:00 AM 75 92 0 0 1.14
7/9/2018 2:00 AM 74 92 0 0 1.09
7/9/2018 3:00 AM 74 92 0 0 1.09
7/9/2018 4:00 AM 73 95 0 0 0.3
7/9/2018 5:00 AM 72 96 0 0 0.03
7/9/2018 6:00 AM 72 96 0.01 0 0.03
7/9/2018 7:00 AM 73 96 0.07 0.01 0.35
7/9/2018 8:00 AM 73 97 0.07 0.14 0.35
7/9/2018 9:00 AM 73 99 0.19 0.21 0.17
7/9/2018 10:00 AM 74 99 0.66 0.02 0
7/9/2018 11:00 AM 76 96 1.7 0 0.09
7/9/2018 12:00 PM 79 85 1.7 0 0.3
7/9/2018 1:00 PM 79 86 1.46 0.04 1.89
7/9/2018 2:00 PM 76 98 0.4 0.03 1.89
7/9/2018 3:00 PM 75 98 0.4 0.01 0.65
7/9/2018 4:00 PM 75 97 0.51 0 0.54
7/9/2018 5:00 PM 75 96 0.51 0 1.06
7/9/2018 6:00 PM 76 95 0.5 0 1.06
7/9/2018 7:00 PM 76 94 0.41 0 0.78
7/9/2018 8:00 PM 76 94 0.3 0 0.53
7/9/2018 9:00 PM 75 97 0.05 0 0.63
7/9/2018 10:00 PM 74 97 0 0 0.74
7/9/2018 11:00 PM 73 97 0 0 0.74
Data Summary 74 94 8.94 0.46 0.69